KMHT/MHT METAR and TAF weather

Enter ICAO airport designator
Station Type Date Time Source
KMHT METAR 2022/11/27 07:53 UTC NOAA

KMHT 270753Z 00000KT 10SM CLR 01/M03 A2981 RMK AO2 SLP110 T00111033 $


Station Type Date Time Source
KMHT Decoded METAR 2022/11/27 07:53 UTC NOAA

MANCHESTER AIRPORT, NH, United States (KMHT) 42-56N 071-26W 81M
Nov 27, 2022 - 02:53 AM EST / 2022.11.27 0753 UTC
Wind: Calm:0
Visibility: 10 mile(s):0
Sky conditions: clear
Temperature: 34.0 F (1.1 C)
Dew Point: 26.1 F (-3.3 C)
Relative Humidity: 72%
Pressure (altimeter): 29.81 in. Hg (1009 hPa)
ob: KMHT 270753Z 00000KT 10SM CLR 01/M03 A2981 RMK AO2 SLP110 T00111033
cycle: 8

Station Type Date Time Source
KMHT TAF 2022/11/27 06:42 UTC NOAA

TAF KMHT 270538Z 2706/2806 23006KT P6SM SKC WS020/28035KT
FM270900 VRB03KT P6SM SKC
FM271900 21006KT P6SM -SHRA BKN040
FM272200 16006KT 5SM -SHRA OVC005

Example: see airport list